sensor_id;sensor_type;location;lat;lon;timestamp;P1;durP1;ratioP1;P2;durP2;ratioP2
45936;SDS011;31649;46.510;6.498;2022-08-02T00:01:48;3.05;;;2.28;;
45936;SDS011;31649;46.510;6.498;2022-08-02T00:04:13;5.35;;;2.30;;
45936;SDS011;31649;46.510;6.498;2022-08-02T00:06:39;4.63;;;2.53;;
45936;SDS011;31649;46.510;6.498;2022-08-02T00:09:04;2.60;;;2.40;;
45936;SDS011;31649;46.510;6.498;2022-08-02T00:11:30;2.78;;;2.22;;
45936;SDS011;31649;46.510;6.498;2022-08-02T00:13:55;3.25;;;2.38;;
45936;SDS011;31649;46.510;6.498;2022-08-02T00:16:21;2.50;;;2.30;;
45936;SDS011;31649;46.510;6.498;2022-08-02T00:18:47;2.80;;;2.45;;
45936;SDS011;31649;46.510;6.498;2022-08-02T00:21:13;2.92;;;2.28;;
45936;SDS011;31649;46.510;6.498;2022-08-02T00:23:38;4.80;;;2.00;;
45936;SDS011;31649;46.510;6.498;2022-08-02T00:26:03;2.50;;;2.30;;
45936;SDS011;31649;46.510;6.498;2022-08-02T00:28:29;4.43;;;2.50;;
45936;SDS011;31649;46.510;6.498;2022-08-02T00:30:55;2.35;;;2.15;;
45936;SDS011;31649;46.510;6.498;2022-08-02T00:33:21;2.45;;;1.60;;
45936;SDS011;31649;46.510;6.498;2022-08-02T00:35:46;3.50;;;2.20;;
45936;SDS011;31649;46.510;6.498;2022-08-02T00:38:12;4.57;;;2.10;;
45936;SDS011;31649;46.510;6.498;2022-08-02T00:40:38;3.83;;;2.08;;
45936;SDS011;31649;46.510;6.498;2022-08-02T00:43:04;2.60;;;1.90;;
45936;SDS011;31649;46.510;6.498;2022-08-02T00:45:31;6.25;;;2.40;;
45936;SDS011;31649;46.510;6.498;2022-08-02T00:48:02;4.70;;;2.25;;
45936;SDS011;31649;46.510;6.498;2022-08-02T00:50:29;2.50;;;2.30;;
45936;SDS011;31649;46.510;6.498;2022-08-02T00:52:54;2.75;;;2.38;;
45936;SDS011;31649;46.510;6.498;2022-08-02T00:55:20;2.38;;;2.03;;
45936;SDS011;31649;46.510;6.498;2022-08-02T00:57:45;5.53;;;1.88;;
45936;SDS011;31649;46.510;6.498;2022-08-02T01:00:11;3.60;;;1.30;;
45936;SDS011;31649;46.510;6.498;2022-08-02T01:02:37;4.70;;;1.83;;
45936;SDS011;31649;46.510;6.498;2022-08-02T01:05:02;10.57;;;1.98;;
45936;SDS011;31649;46.510;6.498;2022-08-02T01:07:29;2.95;;;1.90;;
45936;SDS011;31649;46.510;6.498;2022-08-02T01:09:54;3.80;;;2.10;;
45936;SDS011;31649;46.510;6.498;2022-08-02T01:12:20;2.55;;;1.92;;
45936;SDS011;31649;46.510;6.498;2022-08-02T01:14:49;3.08;;;1.63;;
45936;SDS011;31649;46.510;6.498;2022-08-02T01:26:42;2.78;;;1.90;;
45936;SDS011;31649;46.510;6.498;2022-08-02T01:29:15;6.73;;;1.60;;
45936;SDS011;31649;46.510;6.498;2022-08-02T01:31:47;3.85;;;1.95;;
45936;SDS011;31649;46.510;6.498;2022-08-02T01:34:19;2.22;;;1.95;;
45936;SDS011;31649;46.510;6.498;2022-08-02T01:37:06;2.13;;;1.85;;
45936;SDS011;31649;46.510;6.498;2022-08-02T01:39:37;4.15;;;1.50;;
45936;SDS011;31649;46.510;6.498;2022-08-02T01:42:06;1.88;;;1.60;;
45936;SDS011;31649;46.510;6.498;2022-08-02T01:44:33;2.15;;;1.95;;
45936;SDS011;31649;46.510;6.498;2022-08-02T01:47:03;5.03;;;2.20;;
45936;SDS011;31649;46.510;6.498;2022-08-02T01:49:31;10.23;;;2.70;;
45936;SDS011;31649;46.510;6.498;2022-08-02T01:52:00;3.83;;;1.80;;
45936;SDS011;31649;46.510;6.498;2022-08-02T01:54:47;1.60;;;1.50;;
45936;SDS011;31649;46.510;6.498;2022-08-02T01:57:16;3.38;;;2.13;;
45936;SDS011;31649;46.510;6.498;2022-08-02T01:59:45;2.42;;;1.85;;
45936;SDS011;31649;46.510;6.498;2022-08-02T02:02:11;2.50;;;2.13;;
45936;SDS011;31649;46.510;6.498;2022-08-02T02:04:39;6.57;;;2.00;;
45936;SDS011;31649;46.510;6.498;2022-08-02T02:07:05;1.92;;;1.67;;
45936;SDS011;31649;46.510;6.498;2022-08-02T02:09:33;2.83;;;2.00;;
45936;SDS011;31649;46.510;6.498;2022-08-02T02:12:01;6.35;;;1.92;;
45936;SDS011;31649;46.510;6.498;2022-08-02T02:14:28;4.32;;;1.70;;
45936;SDS011;31649;46.510;6.498;2022-08-02T02:16:56;2.15;;;1.88;;
45936;SDS011;31649;46.510;6.498;2022-08-02T02:19:24;1.55;;;1.45;;
45936;SDS011;31649;46.510;6.498;2022-08-02T02:21:52;5.00;;;1.60;;
45936;SDS011;31649;46.510;6.498;2022-08-02T02:24:17;3.25;;;2.28;;
45936;SDS011;31649;46.510;6.498;2022-08-02T02:26:43;2.88;;;1.98;;
45936;SDS011;31649;46.510;6.498;2022-08-02T02:29:10;3.83;;;2.25;;
45936;SDS011;31649;46.510;6.498;2022-08-02T02:31:37;8.88;;;2.08;;
45936;SDS011;31649;46.510;6.498;2022-08-02T02:34:06;2.03;;;1.45;;
45936;SDS011;31649;46.510;6.498;2022-08-02T02:36:36;4.85;;;1.70;;
45936;SDS011;31649;46.510;6.498;2022-08-02T02:39:05;1.70;;;1.60;;
45936;SDS011;31649;46.510;6.498;2022-08-02T02:41:32;2.03;;;1.83;;
45936;SDS011;31649;46.510;6.498;2022-08-02T02:44:00;2.17;;;1.77;;
45936;SDS011;31649;46.510;6.498;2022-08-02T02:46:28;1.73;;;1.60;;
45936;SDS011;31649;46.510;6.498;2022-08-02T02:48:55;3.22;;;1.20;;
45936;SDS011;31649;46.510;6.498;2022-08-02T02:51:21;1.75;;;1.60;;
45936;SDS011;31649;46.510;6.498;2022-08-02T02:53:48;2.53;;;1.77;;
45936;SDS011;31649;46.510;6.498;2022-08-02T02:56:18;3.80;;;1.90;;
45936;SDS011;31649;46.510;6.498;2022-08-02T02:58:45;1.95;;;1.45;;
45936;SDS011;31649;46.510;6.498;2022-08-02T03:01:11;3.30;;;1.73;;
45936;SDS011;31649;46.510;6.498;2022-08-02T03:03:56;1.88;;;1.75;;
45936;SDS011;31649;46.510;6.498;2022-08-02T03:06:24;1.55;;;1.45;;
45936;SDS011;31649;46.510;6.498;2022-08-02T03:08:50;2.17;;;1.67;;
45936;SDS011;31649;46.510;6.498;2022-08-02T03:11:16;2.15;;;1.65;;
45936;SDS011;31649;46.510;6.498;2022-08-02T03:13:41;3.72;;;2.10;;
45936;SDS011;31649;46.510;6.498;2022-08-02T03:16:07;2.33;;;1.60;;
45936;SDS011;31649;46.510;6.498;2022-08-02T03:18:35;2.35;;;1.63;;
45936;SDS011;31649;46.510;6.498;2022-08-02T03:21:04;2.78;;;1.60;;
45936;SDS011;31649;46.510;6.498;2022-08-02T03:23:31;1.40;;;1.30;;
45936;SDS011;31649;46.510;6.498;2022-08-02T03:25:58;1.58;;;1.45;;
45936;SDS011;31649;46.510;6.498;2022-08-02T03:28:23;4.40;;;1.95;;
45936;SDS011;31649;46.510;6.498;2022-08-02T03:30:49;3.92;;;1.35;;
45936;SDS011;31649;46.510;6.498;2022-08-02T03:33:15;2.08;;;1.35;;
45936;SDS011;31649;46.510;6.498;2022-08-02T03:35:41;1.63;;;1.52;;
45936;SDS011;31649;46.510;6.498;2022-08-02T03:38:09;4.45;;;1.55;;
45936;SDS011;31649;46.510;6.498;2022-08-02T03:40:37;3.63;;;1.55;;
45936;SDS011;31649;46.510;6.498;2022-08-02T03:43:03;2.45;;;1.50;;
45936;SDS011;31649;46.510;6.498;2022-08-02T03:45:29;1.98;;;1.50;;
45936;SDS011;31649;46.510;6.498;2022-08-02T03:47:55;1.63;;;1.52;;
45936;SDS011;31649;46.510;6.498;2022-08-02T03:50:22;5.07;;;1.88;;
45936;SDS011;31649;46.510;6.498;2022-08-02T03:52:49;3.03;;;1.75;;
45936;SDS011;31649;46.510;6.498;2022-08-02T03:55:16;2.17;;;1.38;;
45936;SDS011;31649;46.510;6.498;2022-08-02T03:57:41;1.88;;;1.60;;
45936;SDS011;31649;46.510;6.498;2022-08-02T04:00:08;2.38;;;1.50;;
45936;SDS011;31649;46.510;6.498;2022-08-02T04:02:35;2.00;;;1.77;;
45936;SDS011;31649;46.510;6.498;2022-08-02T04:05:01;2.83;;;1.80;;
45936;SDS011;31649;46.510;6.498;2022-08-02T04:07:28;3.40;;;1.85;;
45936;SDS011;31649;46.510;6.498;2022-08-02T04:09:54;2.45;;;2.22;;
45936;SDS011;31649;46.510;6.498;2022-08-02T04:12:20;1.95;;;1.75;;
45936;SDS011;31649;46.510;6.498;2022-08-02T04:14:47;3.65;;;1.92;;
45936;SDS011;31649;46.510;6.498;2022-08-02T04:17:13;3.50;;;1.92;;
45936;SDS011;31649;46.510;6.498;2022-08-02T04:22:50;4.15;;;1.67;;
45936;SDS011;31649;46.510;6.498;2022-08-02T04:25:26;1.88;;;1.67;;
45936;SDS011;31649;46.510;6.498;2022-08-02T04:27:52;2.03;;;1.70;;
45936;SDS011;31649;46.510;6.498;2022-08-02T04:30:20;1.83;;;1.73;;
45936;SDS011;31649;46.510;6.498;2022-08-02T04:32:46;2.05;;;1.65;;
45936;SDS011;31649;46.510;6.498;2022-08-02T04:35:12;1.63;;;1.52;;
45936;SDS011;31649;46.510;6.498;2022-08-02T04:37:39;1.85;;;1.70;;
45936;SDS011;31649;46.510;6.498;2022-08-02T04:40:09;2.90;;;1.70;;
45936;SDS011;31649;46.510;6.498;2022-08-02T04:42:41;4.32;;;1.92;;
45936;SDS011;31649;46.510;6.498;2022-08-02T04:45:11;3.13;;;1.80;;
45936;SDS011;31649;46.510;6.498;2022-08-02T04:47:39;2.65;;;1.85;;
45936;SDS011;31649;46.510;6.498;2022-08-02T04:50:11;2.80;;;1.73;;
45936;SDS011;31649;46.510;6.498;2022-08-02T04:52:40;3.88;;;2.05;;
45936;SDS011;31649;46.510;6.498;2022-08-02T04:55:09;4.25;;;2.20;;
45936;SDS011;31649;46.510;6.498;2022-08-02T04:57:37;2.13;;;1.88;;
45936;SDS011;31649;46.510;6.498;2022-08-02T05:00:26;2.80;;;2.03;;
45936;SDS011;31649;46.510;6.498;2022-08-02T05:02:59;2.13;;;1.93;;
45936;SDS011;31649;46.510;6.498;2022-08-02T05:05:29;2.22;;;1.85;;
45936;SDS011;31649;46.510;6.498;2022-08-02T05:08:00;2.72;;;1.83;;
45936;SDS011;31649;46.510;6.498;2022-08-02T05:10:30;1.70;;;1.60;;
45936;SDS011;31649;46.510;6.498;2022-08-02T05:13:02;1.98;;;1.83;;
45936;SDS011;31649;46.510;6.498;2022-08-02T05:15:35;5.55;;;3.55;;
45936;SDS011;31649;46.510;6.498;2022-08-02T05:18:07;3.20;;;2.15;;
45936;SDS011;31649;46.510;6.498;2022-08-02T05:20:37;2.40;;;1.70;;
45936;SDS011;31649;46.510;6.498;2022-08-02T05:23:11;5.72;;;2.15;;
45936;SDS011;31649;46.510;6.498;2022-08-02T05:25:44;4.10;;;1.90;;
45936;SDS011;31649;46.510;6.498;2022-08-02T05:28:19;4.90;;;2.10;;
45936;SDS011;31649;46.510;6.498;2022-08-02T05:30:54;5.45;;;2.42;;
45936;SDS011;31649;46.510;6.498;2022-08-02T05:33:28;2.80;;;1.80;;
45936;SDS011;31649;46.510;6.498;2022-08-02T05:36:03;4.68;;;2.13;;
45936;SDS011;31649;46.510;6.498;2022-08-02T05:38:36;2.92;;;1.90;;
45936;SDS011;31649;46.510;6.498;2022-08-02T05:41:11;3.40;;;1.80;;
45936;SDS011;31649;46.510;6.498;2022-08-02T05:43:38;2.85;;;1.92;;
45936;SDS011;31649;46.510;6.498;2022-08-02T05:46:15;3.05;;;1.67;;
45936;SDS011;31649;46.510;6.498;2022-08-02T05:48:52;6.57;;;1.67;;
45936;SDS011;31649;46.510;6.498;2022-08-02T05:51:41;4.88;;;2.17;;
45936;SDS011;31649;46.510;6.498;2022-08-02T05:54:32;2.25;;;1.90;;
45936;SDS011;31649;46.510;6.498;2022-08-02T05:57:15;2.35;;;1.92;;
45936;SDS011;31649;46.510;6.498;2022-08-02T06:00:03;3.10;;;1.67;;
45936;SDS011;31649;46.510;6.498;2022-08-02T06:05:47;5.82;;;1.90;;
45936;SDS011;31649;46.510;6.498;2022-08-02T06:08:32;2.90;;;1.90;;
45936;SDS011;31649;46.510;6.498;2022-08-02T06:11:22;10.88;;;1.98;;
45936;SDS011;31649;46.510;6.498;2022-08-02T06:14:04;2.28;;;2.08;;
45936;SDS011;31649;46.510;6.498;2022-08-02T06:16:31;5.35;;;2.17;;
45936;SDS011;31649;46.510;6.498;2022-08-02T06:18:57;3.25;;;2.20;;
45936;SDS011;31649;46.510;6.498;2022-08-02T06:21:24;2.75;;;2.10;;
45936;SDS011;31649;46.510;6.498;2022-08-02T06:23:50;5.18;;;1.88;;
45936;SDS011;31649;46.510;6.498;2022-08-02T06:26:16;5.60;;;2.08;;
45936;SDS011;31649;46.510;6.498;2022-08-02T06:28:42;8.00;;;2.20;;
45936;SDS011;31649;46.510;6.498;2022-08-02T06:31:09;3.97;;;2.30;;
45936;SDS011;31649;46.510;6.498;2022-08-02T06:33:38;2.20;;;2.00;;
45936;SDS011;31649;46.510;6.498;2022-08-02T06:36:07;2.97;;;1.92;;
45936;SDS011;31649;46.510;6.498;2022-08-02T06:38:41;3.55;;;2.33;;
45936;SDS011;31649;46.510;6.498;2022-08-02T06:41:09;6.72;;;2.03;;
45936;SDS011;31649;46.510;6.498;2022-08-02T06:46:19;6.90;;;3.00;;
45936;SDS011;31649;46.510;6.498;2022-08-02T06:48:46;2.78;;;2.10;;
45936;SDS011;31649;46.510;6.498;2022-08-02T06:51:12;4.38;;;2.38;;
45936;SDS011;31649;46.510;6.498;2022-08-02T06:53:38;2.17;;;1.95;;
45936;SDS011;31649;46.510;6.498;2022-08-02T06:56:04;5.43;;;2.53;;
45936;SDS011;31649;46.510;6.498;2022-08-02T06:58:29;5.68;;;2.20;;
45936;SDS011;31649;46.510;6.498;2022-08-02T07:00:55;3.33;;;2.42;;
45936;SDS011;31649;46.510;6.498;2022-08-02T07:03:20;2.65;;;1.73;;
45936;SDS011;31649;46.510;6.498;2022-08-02T07:05:46;4.57;;;1.90;;
45936;SDS011;31649;46.510;6.498;2022-08-02T07:08:14;3.47;;;2.42;;
45936;SDS011;31649;46.510;6.498;2022-08-02T07:10:40;2.65;;;2.30;;
45936;SDS011;31649;46.510;6.498;2022-08-02T07:13:05;2.50;;;2.30;;
45936;SDS011;31649;46.510;6.498;2022-08-02T07:15:31;2.28;;;2.10;;
45936;SDS011;31649;46.510;6.498;2022-08-02T07:17:57;5.28;;;2.40;;
45936;SDS011;31649;46.510;6.498;2022-08-02T07:20:22;3.88;;;2.53;;
45936;SDS011;31649;46.510;6.498;2022-08-02T07:22:47;8.05;;;2.42;;
45936;SDS011;31649;46.510;6.498;2022-08-02T07:25:13;5.35;;;2.22;;
45936;SDS011;31649;46.510;6.498;2022-08-02T07:27:38;2.63;;;2.05;;
45936;SDS011;31649;46.510;6.498;2022-08-02T07:30:04;3.80;;;2.28;;
45936;SDS011;31649;46.510;6.498;2022-08-02T07:32:30;4.35;;;3.08;;
45936;SDS011;31649;46.510;6.498;2022-08-02T07:34:56;3.30;;;2.10;;
45936;SDS011;31649;46.510;6.498;2022-08-02T07:37:26;2.97;;;2.10;;
45936;SDS011;31649;46.510;6.498;2022-08-02T07:39:53;7.35;;;2.95;;
45936;SDS011;31649;46.510;6.498;2022-08-02T07:42:19;2.55;;;2.30;;
45936;SDS011;31649;46.510;6.498;2022-08-02T07:44:44;3.47;;;2.30;;
45936;SDS011;31649;46.510;6.498;2022-08-02T07:47:10;3.55;;;2.50;;
45936;SDS011;31649;46.510;6.498;2022-08-02T07:49:35;4.25;;;2.88;;
45936;SDS011;31649;46.510;6.498;2022-08-02T07:52:01;2.60;;;2.40;;
45936;SDS011;31649;46.510;6.498;2022-08-02T07:54:27;2.67;;;2.42;;
45936;SDS011;31649;46.510;6.498;2022-08-02T07:56:52;3.78;;;2.40;;
45936;SDS011;31649;46.510;6.498;2022-08-02T07:59:18;3.13;;;2.65;;
45936;SDS011;31649;46.510;6.498;2022-08-02T08:01:44;6.63;;;2.40;;
45936;SDS011;31649;46.510;6.498;2022-08-02T08:04:10;3.65;;;2.88;;
45936;SDS011;31649;46.510;6.498;2022-08-02T08:06:35;6.05;;;2.92;;
45936;SDS011;31649;46.510;6.498;2022-08-02T08:09:01;2.83;;;2.58;;
45936;SDS011;31649;46.510;6.498;2022-08-02T08:11:26;2.58;;;2.38;;
45936;SDS011;31649;46.510;6.498;2022-08-02T08:13:52;3.42;;;2.90;;
45936;SDS011;31649;46.510;6.498;2022-08-02T08:16:17;4.38;;;2.95;;
45936;SDS011;31649;46.510;6.498;2022-08-02T08:18:43;2.85;;;2.55;;
45936;SDS011;31649;46.510;6.498;2022-08-02T08:21:08;3.67;;;2.90;;
45936;SDS011;31649;46.510;6.498;2022-08-02T08:23:34;6.13;;;2.88;;
45936;SDS011;31649;46.510;6.498;2022-08-02T08:26:00;4.93;;;2.63;;
45936;SDS011;31649;46.510;6.498;2022-08-02T08:28:26;3.58;;;3.22;;
45936;SDS011;31649;46.510;6.498;2022-08-02T08:30:52;4.53;;;2.42;;
45936;SDS011;31649;46.510;6.498;2022-08-02T08:33:17;6.97;;;2.72;;
45936;SDS011;31649;46.510;6.498;2022-08-02T08:35:42;3.60;;;2.58;;
45936;SDS011;31649;46.510;6.498;2022-08-02T08:38:08;3.72;;;2.50;;
45936;SDS011;31649;46.510;6.498;2022-08-02T08:40:34;3.75;;;2.58;;
45936;SDS011;31649;46.510;6.498;2022-08-02T08:42:59;6.28;;;2.78;;
45936;SDS011;31649;46.510;6.498;2022-08-02T08:45:24;5.72;;;3.30;;
45936;SDS011;31649;46.510;6.498;2022-08-02T08:47:51;10.18;;;3.13;;
45936;SDS011;31649;46.510;6.498;2022-08-02T08:50:22;4.55;;;2.97;;
45936;SDS011;31649;46.510;6.498;2022-08-02T08:53:07;11.07;;;3.03;;
45936;SDS011;31649;46.510;6.498;2022-08-02T08:55:34;8.50;;;2.88;;
45936;SDS011;31649;46.510;6.498;2022-08-02T08:58:00;6.97;;;3.20;;
45936;SDS011;31649;46.510;6.498;2022-08-02T09:00:31;3.55;;;2.45;;
45936;SDS011;31649;46.510;6.498;2022-08-02T09:02:57;4.30;;;2.92;;
45936;SDS011;31649;46.510;6.498;2022-08-02T09:05:25;3.63;;;2.60;;
45936;SDS011;31649;46.510;6.498;2022-08-02T09:07:51;6.53;;;2.72;;
45936;SDS011;31649;46.510;6.498;2022-08-02T09:13:08;3.97;;;2.80;;
45936;SDS011;31649;46.510;6.498;2022-08-02T09:15:43;7.10;;;2.70;;
45936;SDS011;31649;46.510;6.498;2022-08-02T09:18:10;3.40;;;3.10;;
45936;SDS011;31649;46.510;6.498;2022-08-02T09:20:55;3.83;;;3.28;;
45936;SDS011;31649;46.510;6.498;2022-08-02T09:23:22;2.58;;;2.38;;
45936;SDS011;31649;46.510;6.498;2022-08-02T09:26:09;2.92;;;2.70;;
45936;SDS011;31649;46.510;6.498;2022-08-02T09:28:37;3.05;;;2.50;;
45936;SDS011;31649;46.510;6.498;2022-08-02T09:33:30;4.43;;;3.80;;
45936;SDS011;31649;46.510;6.498;2022-08-02T09:36:03;3.33;;;3.03;;
45936;SDS011;31649;46.510;6.498;2022-08-02T09:38:34;4.10;;;3.20;;
45936;SDS011;31649;46.510;6.498;2022-08-02T09:41:01;3.28;;;2.50;;
45936;SDS011;31649;46.510;6.498;2022-08-02T09:43:35;3.97;;;2.90;;
45936;SDS011;31649;46.510;6.498;2022-08-02T09:46:15;3.10;;;2.85;;
45936;SDS011;31649;46.510;6.498;2022-08-02T09:48:52;3.55;;;3.25;;
45936;SDS011;31649;46.510;6.498;2022-08-02T09:51:18;4.60;;;2.75;;
45936;SDS011;31649;46.510;6.498;2022-08-02T09:53:46;3.55;;;3.25;;
45936;SDS011;31649;46.510;6.498;2022-08-02T09:56:12;3.17;;;2.80;;
45936;SDS011;31649;46.510;6.498;2022-08-02T09:58:38;3.97;;;2.80;;
45936;SDS011;31649;46.510;6.498;2022-08-02T10:01:04;3.22;;;2.65;;
45936;SDS011;31649;46.510;6.498;2022-08-02T10:03:30;6.97;;;2.90;;
45936;SDS011;31649;46.510;6.498;2022-08-02T10:05:56;6.32;;;2.78;;
45936;SDS011;31649;46.510;6.498;2022-08-02T10:08:26;5.30;;;3.00;;
45936;SDS011;31649;46.510;6.498;2022-08-02T10:10:55;3.80;;;2.80;;
45936;SDS011;31649;46.510;6.498;2022-08-02T10:13:28;4.35;;;2.72;;
45936;SDS011;31649;46.510;6.498;2022-08-02T10:15:58;3.42;;;3.00;;
45936;SDS011;31649;46.510;6.498;2022-08-02T10:18:26;2.92;;;2.72;;
45936;SDS011;31649;46.510;6.498;2022-08-02T10:20:52;3.03;;;2.58;;
45936;SDS011;31649;46.510;6.498;2022-08-02T10:23:20;3.35;;;2.60;;
45936;SDS011;31649;46.510;6.498;2022-08-02T10:25:49;4.75;;;2.83;;
45936;SDS011;31649;46.510;6.498;2022-08-02T10:28:17;7.38;;;2.67;;
45936;SDS011;31649;46.510;6.498;2022-08-02T10:30:49;3.80;;;2.65;;
45936;SDS011;31649;46.510;6.498;2022-08-02T10:33:19;3.60;;;3.10;;
45936;SDS011;31649;46.510;6.498;2022-08-02T10:35:46;4.20;;;3.20;;
45936;SDS011;31649;46.510;6.498;2022-08-02T10:38:16;3.17;;;2.80;;
45936;SDS011;31649;46.510;6.498;2022-08-02T10:40:46;2.60;;;2.40;;
45936;SDS011;31649;46.510;6.498;2022-08-02T10:43:12;5.20;;;2.47;;
45936;SDS011;31649;46.510;6.498;2022-08-02T10:54:33;3.72;;;2.65;;
45936;SDS011;31649;46.510;6.498;2022-08-02T10:57:01;4.07;;;2.33;;
45936;SDS011;31649;46.510;6.498;2022-08-02T10:59:28;4.95;;;3.10;;
45936;SDS011;31649;46.510;6.498;2022-08-02T11:01:56;3.30;;;2.80;;
45936;SDS011;31649;46.510;6.498;2022-08-02T11:07:30;3.85;;;3.53;;
45936;SDS011;31649;46.510;6.498;2022-08-02T11:10:26;2.67;;;2.47;;
45936;SDS011;31649;46.510;6.498;2022-08-02T11:13:01;2.63;;;2.42;;
45936;SDS011;31649;46.510;6.498;2022-08-02T11:15:47;5.35;;;2.70;;
45936;SDS011;31649;46.510;6.498;2022-08-02T11:18:14;5.18;;;2.83;;
45936;SDS011;31649;46.510;6.498;2022-08-02T11:20:40;5.72;;;2.67;;
45936;SDS011;31649;46.510;6.498;2022-08-02T11:25:58;3.72;;;2.80;;
45936;SDS011;31649;46.510;6.498;2022-08-02T11:28:24;3.38;;;2.80;;
45936;SDS011;31649;46.510;6.498;2022-08-02T12:24:34;2.95;;;2.58;;
45936;SDS011;31649;46.510;6.498;2022-08-02T12:27:02;2.67;;;2.47;;
45936;SDS011;31649;46.510;6.498;2022-08-02T12:29:31;3.42;;;2.40;;
45936;SDS011;31649;46.510;6.498;2022-08-02T12:31:59;2.42;;;2.22;;
45936;SDS011;31649;46.510;6.498;2022-08-02T12:34:25;2.60;;;2.40;;
45936;SDS011;31649;46.510;6.498;2022-08-02T12:36:59;5.97;;;2.40;;
45936;SDS011;31649;46.510;6.498;2022-08-02T12:42:02;2.70;;;2.50;;
45936;SDS011;31649;46.510;6.498;2022-08-02T12:44:29;3.72;;;2.50;;
45936;SDS011;31649;46.510;6.498;2022-08-02T12:47:00;2.30;;;2.10;;
45936;SDS011;31649;46.510;6.498;2022-08-02T12:49:28;2.50;;;2.30;;
45936;SDS011;31649;46.510;6.498;2022-08-02T12:51:55;2.97;;;2.28;;
45936;SDS011;31649;46.510;6.498;2022-08-02T12:54:24;2.45;;;2.25;;
45936;SDS011;31649;46.510;6.498;2022-08-02T12:56:56;4.38;;;2.30;;
45936;SDS011;31649;46.510;6.498;2022-08-02T12:59:32;3.63;;;1.98;;
45936;SDS011;31649;46.510;6.498;2022-08-02T13:02:05;2.80;;;2.28;;
45936;SDS011;31649;46.510;6.498;2022-08-02T13:04:37;3.03;;;2.08;;
45936;SDS011;31649;46.510;6.498;2022-08-02T13:07:03;4.25;;;1.90;;
45936;SDS011;31649;46.510;6.498;2022-08-02T13:09:34;2.22;;;1.92;;
45936;SDS011;31649;46.510;6.498;2022-08-02T13:12:02;2.45;;;2.25;;
45936;SDS011;31649;46.510;6.498;2022-08-02T13:14:28;4.50;;;2.00;;
45936;SDS011;31649;46.510;6.498;2022-08-02T13:16:54;2.80;;;2.13;;
45936;SDS011;31649;46.510;6.498;2022-08-02T13:19:19;2.20;;;2.00;;
45936;SDS011;31649;46.510;6.498;2022-08-02T13:21:45;2.60;;;1.95;;
45936;SDS011;31649;46.510;6.498;2022-08-02T13:24:12;2.70;;;1.90;;
45936;SDS011;31649;46.510;6.498;2022-08-02T13:26:40;2.78;;;1.55;;
45936;SDS011;31649;46.510;6.498;2022-08-02T13:29:06;1.92;;;1.58;;
45936;SDS011;31649;46.510;6.498;2022-08-02T13:31:31;2.85;;;2.00;;
45936;SDS011;31649;46.510;6.498;2022-08-02T13:33:59;2.78;;;2.50;;
45936;SDS011;31649;46.510;6.498;2022-08-02T13:36:24;3.35;;;2.05;;
45936;SDS011;31649;46.510;6.498;2022-08-02T13:38:50;2.58;;;2.20;;
45936;SDS011;31649;46.510;6.498;2022-08-02T13:41:15;4.78;;;2.03;;
45936;SDS011;31649;46.510;6.498;2022-08-02T13:43:40;4.95;;;2.78;;
45936;SDS011;31649;46.510;6.498;2022-08-02T13:46:06;1.98;;;1.75;;
45936;SDS011;31649;46.510;6.498;2022-08-02T13:48:31;2.13;;;1.77;;
45936;SDS011;31649;46.510;6.498;2022-08-02T13:50:57;3.38;;;1.67;;
45936;SDS011;31649;46.510;6.498;2022-08-02T13:53:23;2.50;;;2.25;;
45936;SDS011;31649;46.510;6.498;2022-08-02T13:55:49;2.65;;;2.42;;
45936;SDS011;31649;46.510;6.498;2022-08-02T13:58:14;2.63;;;2.22;;
45936;SDS011;31649;46.510;6.498;2022-08-02T14:00:40;7.28;;;5.22;;
45936;SDS011;31649;46.510;6.498;2022-08-02T14:03:06;3.90;;;1.90;;
45936;SDS011;31649;46.510;6.498;2022-08-02T14:05:32;4.65;;;2.20;;
45936;SDS011;31649;46.510;6.498;2022-08-02T14:08:01;1.80;;;1.65;;
45936;SDS011;31649;46.510;6.498;2022-08-02T14:10:27;1.63;;;1.52;;
45936;SDS011;31649;46.510;6.498;2022-08-02T14:12:52;2.15;;;1.60;;
45936;SDS011;31649;46.510;6.498;2022-08-02T14:15:17;1.50;;;1.23;;
45936;SDS011;31649;46.510;6.498;2022-08-02T14:17:43;1.08;;;1.08;;
45936;SDS011;31649;46.510;6.498;2022-08-02T14:20:09;1.30;;;1.20;;
45936;SDS011;31649;46.510;6.498;2022-08-02T14:22:35;5.20;;;1.20;;
45936;SDS011;31649;46.510;6.498;2022-08-02T14:25:00;1.83;;;1.55;;
45936;SDS011;31649;46.510;6.498;2022-08-02T14:27:27;0.93;;;0.93;;
45936;SDS011;31649;46.510;6.498;2022-08-02T14:29:55;4.97;;;1.48;;
45936;SDS011;31649;46.510;6.498;2022-08-02T14:32:21;1.52;;;1.42;;
45936;SDS011;31649;46.510;6.498;2022-08-02T14:34:46;1.75;;;1.50;;
45936;SDS011;31649;46.510;6.498;2022-08-02T14:37:12;1.52;;;1.30;;
45936;SDS011;31649;46.510;6.498;2022-08-02T14:39:37;1.70;;;1.60;;
45936;SDS011;31649;46.510;6.498;2022-08-02T14:42:03;4.53;;;1.30;;
45936;SDS011;31649;46.510;6.498;2022-08-02T14:44:28;2.28;;;1.50;;
45936;SDS011;31649;46.510;6.498;2022-08-02T14:46:54;3.97;;;1.88;;
45936;SDS011;31649;46.510;6.498;2022-08-02T14:49:20;1.65;;;1.55;;
45936;SDS011;31649;46.510;6.498;2022-08-02T14:51:46;3.70;;;2.10;;
45936;SDS011;31649;46.510;6.498;2022-08-02T14:54:11;4.70;;;1.65;;
45936;SDS011;31649;46.510;6.498;2022-08-02T14:56:37;1.25;;;1.15;;
45936;SDS011;31649;46.510;6.498;2022-08-02T14:59:03;2.47;;;2.10;;
45936;SDS011;31649;46.510;6.498;2022-08-02T15:01:28;2.90;;;1.45;;
45936;SDS011;31649;46.510;6.498;2022-08-02T15:03:55;1.75;;;1.65;;
45936;SDS011;31649;46.510;6.498;2022-08-02T15:06:21;2.03;;;1.75;;
45936;SDS011;31649;46.510;6.498;2022-08-02T15:08:46;1.90;;;1.23;;
45936;SDS011;31649;46.510;6.498;2022-08-02T15:11:12;2.20;;;1.50;;
45936;SDS011;31649;46.510;6.498;2022-08-02T15:13:38;3.38;;;2.00;;
45936;SDS011;31649;46.510;6.498;2022-08-02T15:16:03;6.43;;;2.08;;
45936;SDS011;31649;46.510;6.498;2022-08-02T15:18:29;2.28;;;1.77;;
45936;SDS011;31649;46.510;6.498;2022-08-02T15:20:54;2.67;;;1.80;;
45936;SDS011;31649;46.510;6.498;2022-08-02T15:23:21;3.03;;;1.77;;
45936;SDS011;31649;46.510;6.498;2022-08-02T15:25:50;3.35;;;2.13;;
45936;SDS011;31649;46.510;6.498;2022-08-02T15:28:16;2.42;;;1.80;;
45936;SDS011;31649;46.510;6.498;2022-08-02T15:30:42;2.53;;;2.05;;
45936;SDS011;31649;46.510;6.498;2022-08-02T15:33:07;2.20;;;2.00;;
45936;SDS011;31649;46.510;6.498;2022-08-02T15:35:33;2.38;;;1.42;;
45936;SDS011;31649;46.510;6.498;2022-08-02T15:37:58;1.75;;;1.65;;
45936;SDS011;31649;46.510;6.498;2022-08-02T15:40:24;2.30;;;2.10;;
45936;SDS011;31649;46.510;6.498;2022-08-02T15:42:50;1.95;;;1.85;;
45936;SDS011;31649;46.510;6.498;2022-08-02T15:45:16;3.17;;;2.03;;
45936;SDS011;31649;46.510;6.498;2022-08-02T15:47:42;3.88;;;1.70;;
45936;SDS011;31649;46.510;6.498;2022-08-02T15:50:08;4.00;;;2.28;;
45936;SDS011;31649;46.510;6.498;2022-08-02T15:52:34;2.20;;;2.03;;
45936;SDS011;31649;46.510;6.498;2022-08-02T15:54:59;4.05;;;2.30;;
45936;SDS011;31649;46.510;6.498;2022-08-02T15:57:25;4.60;;;2.10;;
45936;SDS011;31649;46.510;6.498;2022-08-02T15:59:51;2.33;;;2.13;;
45936;SDS011;31649;46.510;6.498;2022-08-02T16:02:17;3.25;;;1.95;;
45936;SDS011;31649;46.510;6.498;2022-08-02T16:04:44;1.95;;;1.65;;
45936;SDS011;31649;46.510;6.498;2022-08-02T16:07:10;1.90;;;1.65;;
45936;SDS011;31649;46.510;6.498;2022-08-02T16:09:35;2.50;;;2.30;;
45936;SDS011;31649;46.510;6.498;2022-08-02T16:12:01;13.38;;;1.77;;
45936;SDS011;31649;46.510;6.498;2022-08-02T16:14:26;3.83;;;1.75;;
45936;SDS011;31649;46.510;6.498;2022-08-02T16:16:52;3.20;;;1.85;;
45936;SDS011;31649;46.510;6.498;2022-08-02T16:19:17;2.75;;;1.50;;
45936;SDS011;31649;46.510;6.498;2022-08-02T16:21:43;2.25;;;1.92;;
45936;SDS011;31649;46.510;6.498;2022-08-02T16:24:08;3.80;;;1.83;;
45936;SDS011;31649;46.510;6.498;2022-08-02T16:26:34;2.50;;;2.30;;
45936;SDS011;31649;46.510;6.498;2022-08-02T16:29:00;1.70;;;1.60;;